Time;durP1;ratioP1;P1;durP2;ratioP2;P2;SDS_P1;SDS_P2;PMS_P1;PMS_P2;Temp;Humidity;BMP_temperature;BMP_pressure;BME280_temperature;BME280_humidity;BME280_pressure;Samples;Min_cycle;Max_cycle;Signal;HPM_P1;HPM_P2
2022/10/06 00:01:15;;;;;;;3.70;2.15;;;17.00;61.40;;;19.63;43.31;98357.81;5025544;28;20050;-49
2022/10/06 00:03:45;;;;;;;4.97;2.15;;;17.00;61.50;;;19.63;43.47;98356.97;5025115;28;20044;-49
2022/10/06 00:06:15;;;;;;;3.05;2.00;;;17.00;61.80;;;19.61;43.57;98364.44;5024740;28;20264;-49
2022/10/06 00:08:45;;;;;;;2.55;2.08;;;17.00;61.80;;;19.62;43.45;98366.13;5024561;28;20046;-47
2022/10/06 00:11:15;;;;;;;4.22;2.65;;;17.00;61.90;;;19.61;43.53;98367.16;5024996;28;20041;-51
2022/10/06 00:13:43;;;;;;;3.90;1.70;;;17.00;61.90;;;19.62;43.64;98366.13;5024838;28;20057;-50
2022/10/06 00:16:16;;;;;;;6.97;1.80;;;17.00;62.00;;;19.55;43.54;98376.88;5024840;28;20052;-47
2022/10/06 00:18:44;;;;;;;4.20;1.55;;;17.00;62.00;;;19.56;43.71;98372.31;5024579;28;20174;-51
2022/10/06 00:21:12;;;;;;;2.53;1.88;;;16.90;62.30;;;19.58;43.32;98379.19;5023403;28;20056;-52
2022/10/06 00:23:40;;;;;;;4.85;2.25;;;16.90;62.30;;;19.60;43.68;98387.94;5024695;28;20243;-47
2022/10/06 00:26:15;;;;;;;3.42;2.47;;;16.90;62.40;;;19.62;43.70;98385.03;5025090;28;20048;-50
2022/10/06 00:28:47;;;;;;;3.65;2.03;;;16.90;62.30;;;19.63;43.70;98394.78;5023020;28;20056;-50
2022/10/06 00:31:18;;;;;;;4.25;1.75;;;16.90;62.40;;;19.62;43.54;98409.34;5023226;28;20058;-50
2022/10/06 00:33:48;;;;;;;7.80;2.00;;;16.90;62.40;;;19.61;43.62;98403.09;5007590;28;20060;-51
2022/10/06 00:36:16;;;;;;;3.75;2.10;;;16.90;62.40;;;19.60;43.58;98401.44;5024140;28;20054;-50
2022/10/06 00:38:44;;;;;;;3.95;1.60;;;16.90;62.40;;;19.62;43.60;98406.66;5023488;28;20260;-47
2022/10/06 00:41:15;;;;;;;2.45;1.70;;;16.90;62.60;;;19.63;43.69;98406.41;5024245;28;20046;-47
2022/10/06 00:43:46;;;;;;;2.05;1.52;;;16.90;62.60;;;19.63;43.76;98411.81;5023751;28;20046;-50
2022/10/06 00:46:44;;;;;;;2.95;2.08;;;16.90;63.00;;;19.62;43.76;98412.03;5039601;28;20050;-48
2022/10/06 00:49:33;;;;;;;2.28;1.67;;;16.90;62.50;;;19.61;43.71;98415.75;5023191;28;20041;-51
2022/10/06 00:52:07;;;;;;;7.13;2.58;;;16.80;62.70;;;19.61;43.65;98413.06;5023168;28;20225;-51
2022/10/06 00:54:35;;;;;;;5.05;1.70;;;16.80;62.90;;;19.58;43.67;98424.25;5024710;28;20049;-52
2022/10/06 00:57:04;;;;;;;3.67;1.42;;;16.80;62.80;;;19.56;43.72;98421.78;5022485;28;20054;-48
2022/10/06 00:59:34;;;;;;;3.58;1.73;;;16.80;62.90;;;19.58;43.81;98432.34;5024278;28;20068;-48
2022/10/06 01:02:07;;;;;;;3.58;2.03;;;16.80;63.00;;;19.46;44.02;98434.78;5023980;28;20049;-48
2022/10/06 01:04:40;;;;;;;3.63;1.80;;;16.60;64.00;;;19.33;44.30;98438.25;5023992;28;20225;-51
2022/10/06 01:07:08;;;;;;;4.07;1.92;;;16.40;64.70;;;19.33;44.24;98434.69;5022312;28;20243;-48
2022/10/06 01:09:37;;;;;;;2.20;1.83;;;16.40;64.80;;;19.25;44.44;98443.78;5022391;28;20049;-48
2022/10/06 01:12:07;;;;;;;4.03;1.80;;;16.30;64.90;;;19.24;44.38;98447.53;5022685;28;20041;-50
2022/10/06 01:14:38;;;;;;;4.10;2.20;;;16.30;64.80;;;19.20;44.62;98451.66;5024069;28;20073;-50
2022/10/06 01:17:15;;;;;;;4.80;1.70;;;16.30;65.50;;;19.14;44.61;98457.84;5022549;28;20054;-50
2022/10/06 01:20:10;;;;;;;2.70;1.80;;;16.20;65.60;;;19.10;44.93;98451.19;5006843;28;20057;-51
2022/10/06 01:22:47;;;;;;;2.85;2.00;;;16.20;66.50;;;19.05;45.03;98455.28;5022622;28;20046;-52
2022/10/06 01:25:17;;;;;;;2.38;1.90;;;16.10;66.40;;;18.98;45.37;98454.41;5022580;28;20053;-51
2022/10/06 01:27:52;;;;;;;3.47;2.03;;;16.00;67.10;;;18.92;45.45;98462.44;5022032;28;20072;-49
2022/10/06 01:30:37;;;;;;;3.95;2.00;;;15.90;67.50;;;18.87;45.59;98460.34;5023359;28;20133;-48
2022/10/06 01:33:06;;;;;;;4.75;1.95;;;15.90;68.20;;;18.81;45.72;98467.34;5023523;28;20048;-47
2022/10/06 01:35:34;;;;;;;3.03;2.15;;;15.80;68.20;;;18.76;45.82;98466.22;5039386;28;20050;-50
2022/10/06 01:38:01;;;;;;;2.75;2.15;;;15.70;68.50;;;18.68;45.98;98453.69;5022880;28;20212;-47
2022/10/06 01:40:30;;;;;;;3.28;2.38;;;15.60;68.80;;;18.62;46.15;98460.69;5021971;28;20057;-49
2022/10/06 01:43:00;;;;;;;7.82;2.05;;;15.60;69.20;;;18.57;46.29;98446.97;5038848;28;20064;-50
2022/10/06 01:45:29;;;;;;;4.90;2.70;;;15.60;69.50;;;18.51;46.48;98447.72;5022082;28;20042;-49
2022/10/06 01:47:57;;;;;;;3.50;2.08;;;15.50;70.00;;;18.47;46.52;98441.88;5037546;28;20055;-49
2022/10/06 01:50:25;;;;;;;6.53;2.00;;;15.50;70.30;;;18.44;46.56;98453.06;5038072;28;20072;-51
2022/10/06 01:52:56;;;;;;;2.95;1.85;;;15.40;70.50;;;18.41;46.96;98453.44;5021110;28;20046;-48
2022/10/06 01:55:24;;;;;;;3.13;2.03;;;15.50;70.70;;;18.42;47.03;98451.59;5023235;28;20378;-52
2022/10/06 01:57:53;;;;;;;3.17;2.13;;;15.50;70.50;;;18.47;47.18;98459.91;5037813;28;20280;-51
2022/10/06 02:00:21;;;;;;;4.22;2.00;;;15.60;70.30;;;18.49;47.12;98455.16;5022905;28;20042;-49
2022/10/06 02:02:49;;;;;;;3.60;1.85;;;15.80;69.90;;;18.51;47.26;98450.41;5022927;28;20052;-47
2022/10/06 02:05:17;;;;;;;2.78;1.90;;;15.80;69.90;;;18.52;47.32;98457.50;5022006;28;20045;-49
2022/10/06 02:07:49;;;;;;;5.40;1.80;;;15.80;70.10;;;18.49;47.60;98455.16;5037887;28;20056;-49
2022/10/06 02:10:17;;;;;;;5.40;2.17;;;15.80;70.20;;;18.56;47.69;98456.06;5021946;28;20340;-50
2022/10/06 02:12:52;;;;;;;3.13;2.50;;;15.90;70.50;;;18.59;47.68;98460.25;5021869;28;20056;-52
2022/10/06 02:15:22;;;;;;;4.35;2.35;;;15.90;70.60;;;18.61;47.74;98467.13;5023008;28;20248;-50
2022/10/06 02:17:51;;;;;;;3.95;2.20;;;15.90;70.30;;;18.62;47.81;98468.78;5022222;28;20042;-47
2022/10/06 02:20:20;;;;;;;5.40;2.38;;;16.00;70.30;;;18.62;47.89;98476.88;5020958;28;20045;-47
2022/10/06 02:22:49;;;;;;;3.85;2.00;;;16.00;70.60;;;18.61;48.08;98479.75;5022088;28;20064;-48
2022/10/06 02:25:17;;;;;;;3.20;2.35;;;15.90;71.30;;;18.64;47.95;98485.59;5023419;28;20049;-53
2022/10/06 02:27:45;;;;;;;3.13;2.00;;;15.90;71.20;;;18.66;48.20;98488.94;5021691;28;20052;-49
2022/10/06 02:30:14;;;;;;;3.08;2.42;;;15.90;71.30;;;18.63;48.40;98486.66;5022554;28;20048;-48
2022/10/06 02:32:43;;;;;;;3.55;2.55;;;16.00;71.70;;;18.70;48.28;98490.22;5021855;28;20050;-52
2022/10/06 02:35:11;;;;;;;3.42;2.30;;;16.00;71.70;;;18.69;48.26;98483.19;5022420;28;20348;-47
2022/10/06 02:37:40;;;;;;;3.72;2.03;;;16.00;71.70;;;18.70;48.40;98487.53;5021559;28;20054;-51
2022/10/06 02:40:11;;;;;;;4.50;2.17;;;16.00;71.80;;;18.72;48.38;98489.22;5022562;28;20141;-49
2022/10/06 02:42:38;;;;;;;3.22;2.75;;;16.00;72.00;;;18.76;48.35;98499.41;5022392;28;20046;-49
2022/10/06 02:45:08;;;;;;;4.53;2.10;;;16.00;72.00;;;18.79;48.36;98501.72;5054641;28;20052;-49
2022/10/06 02:47:37;;;;;;;4.43;2.35;;;16.00;72.00;;;18.80;48.51;98502.59;5053431;28;20056;-52
2022/10/06 02:50:06;;;;;;;4.90;2.63;;;16.10;72.40;;;18.82;48.58;98503.22;5022268;28;20041;-47
2022/10/06 02:52:39;;;;;;;3.10;2.30;;;16.10;72.60;;;18.83;48.59;98524.63;5021485;28;20260;-47
2022/10/06 02:55:09;;;;;;;3.53;1.93;;;16.10;72.70;;;18.84;48.65;98523.63;5021336;28;20054;-49
2022/10/06 02:57:37;;;;;;;4.82;2.13;;;16.10;72.70;;;18.85;48.46;98533.34;5021204;28;20053;-51
2022/10/06 03:00:07;;;;;;;5.13;1.90;;;16.10;72.90;;;18.85;48.67;98532.53;5019776;28;20076;-48
2022/10/06 03:02:35;;;;;;;4.63;2.50;;;16.10;73.00;;;18.82;48.55;98536.44;5020961;28;20050;-48
2022/10/06 03:05:04;;;;;;;3.45;2.08;;;16.00;73.00;;;18.83;48.61;98550.78;5054032;28;20053;-51
2022/10/06 03:07:33;;;;;;;3.13;2.35;;;15.90;73.40;;;18.78;48.85;98555.88;5020979;28;20060;-49
2022/10/06 03:10:01;;;;;;;3.53;2.30;;;15.90;73.70;;;18.75;48.66;98559.78;5020591;28;20054;-47
2022/10/06 03:12:29;;;;;;;4.43;2.33;;;15.90;73.90;;;18.73;48.96;98567.25;5037588;28;20046;-49
2022/10/06 03:14:57;;;;;;;3.95;2.42;;;15.80;74.40;;;18.70;49.10;98565.75;5020964;28;20049;-49
2022/10/06 03:17:25;;;;;;;6.65;2.60;;;15.80;74.90;;;18.68;49.42;98577.75;5021458;28;20075;-45
2022/10/06 03:19:56;;;;;;;6.55;2.60;;;15.80;75.70;;;18.62;49.91;98581.22;5037766;28;20356;-50
2022/10/06 03:22:25;;;;;;;4.50;2.50;;;15.80;76.50;;;18.66;49.85;98583.34;5021837;28;20064;-50
2022/10/06 03:24:55;;;;;;;5.07;2.83;;;15.80;76.50;;;18.54;51.17;98584.88;5037264;28;20046;-47
2022/10/06 03:27:24;;;;;;;5.22;2.63;;;15.90;79.20;;;18.55;51.53;98580.28;5052911;28;20053;-50
2022/10/06 03:29:55;;;;;;;5.38;2.72;;;15.90;79.50;;;18.50;52.69;98589.78;5037760;28;20053;-47
2022/10/06 03:32:25;;;;;;;4.88;3.75;;;16.00;82.40;;;18.41;53.67;98590.09;5039100;28;20054;-47
2022/10/06 03:34:53;;;;;;;9.88;3.92;;;16.10;83.60;;;18.62;53.15;98594.69;5041357;28;20056;-49
2022/10/06 03:37:21;;;;;;;4.88;2.70;;;16.10;83.20;;;18.56;54.01;98612.47;5023980;28;20057;-47
2022/10/06 03:39:50;;;;;;;5.00;3.50;;;16.20;85.20;;;18.54;54.29;98611.81;5024024;28;20056;-48
2022/10/06 03:42:18;;;;;;;5.72;3.15;;;16.20;86.50;;;18.52;54.92;98619.28;5040721;28;20054;-48
2022/10/06 03:44:47;;;;;;;4.35;3.22;;;16.20;87.70;;;18.67;54.45;98624.66;5041061;28;20053;-47
2022/10/06 03:47:14;;;;;;;6.50;3.25;;;16.30;88.90;;;18.81;54.25;98626.50;5056735;28;20052;-48
2022/10/06 03:49:45;;;;;;;6.57;2.90;;;16.30;89.50;;;18.76;54.71;98630.75;5020316;28;20352;-50
2022/10/06 03:52:15;;;;;;;3.95;3.08;;;16.30;89.50;;;18.62;55.39;98637.84;5024235;28;20046;-51
2022/10/06 03:54:42;;;;;;;6.20;3.28;;;16.30;90.70;;;18.85;54.92;98640.44;5041084;28;20046;-47
2022/10/06 03:57:10;;;;;;;6.75;3.47;;;16.40;90.80;;;18.83;55.08;98629.00;5057773;28;20060;-50
2022/10/06 03:59:38;;;;;;;4.68;3.58;;;16.40;91.00;;;18.68;55.93;98629.00;5024721;28;20387;-50
2022/10/06 04:02:06;;;;;;;10.77;4.35;;;16.40;92.60;;;18.84;55.28;98627.97;5023054;28;20046;-48
2022/10/06 04:04:37;;;;;;;8.90;4.63;;;16.30;92.90;;;18.79;55.70;98631.22;5039677;28;20064;-48
2022/10/06 04:07:10;;;;;;;8.57;3.40;;;16.40;93.60;;;18.68;56.16;98629.81;5024129;28;20063;-49
2022/10/06 04:09:38;;;;;;;6.60;4.05;;;16.30;95.30;;;18.81;55.80;98639.16;5040889;28;20073;-50
2022/10/06 04:12:08;;;;;;;5.28;3.35;;;16.40;94.80;;;18.74;56.11;98635.50;5040338;28;20049;-48
2022/10/06 04:14:37;;;;;;;9.77;5.63;;;16.40;94.80;;;18.89;55.62;98634.47;5024203;28;20168;-51
2022/10/06 04:17:06;;;;;;;6.50;4.88;;;16.40;94.60;;;18.88;55.68;98642.75;5040193;28;20178;-52
2022/10/06 04:19:36;;;;;;;5.95;4.07;;;16.40;95.00;;;19.02;55.28;98646.44;5024799;28;20052;-51
2022/10/06 04:22:04;;;;;;;6.63;3.78;;;16.50;94.90;;;19.12;54.90;98655.06;5023514;28;20060;-51
2022/10/06 04:24:33;;;;;;;6.43;3.50;;;16.50;94.70;;;19.12;55.04;98652.34;5023545;28;20248;-49
2022/10/06 04:29:58;;;;;;;5.30;3.35;;;16.50;95.30;;;19.15;54.96;98661.94;5023143;28;20045;-46
2022/10/06 04:32:26;;;;;;;9.20;3.80;;;16.50;95.10;;;19.25;54.51;98654.34;5024111;28;20050;-48
2022/10/06 04:34:54;;;;;;;9.32;3.55;;;16.50;94.40;;;19.22;55.01;98668.25;5023180;28;20053;-46
2022/10/06 04:37:23;;;;;;;6.35;3.28;;;16.50;94.70;;;19.32;54.41;98666.06;5055972;28;20348;-49
2022/10/06 04:39:51;;;;;;;5.25;3.50;;;16.50;94.90;;;19.13;55.05;98670.22;5056415;28;20054;-52
2022/10/06 04:42:19;;;;;;;5.80;4.18;;;16.50;95.30;;;19.06;55.41;98672.03;5040614;28;20382;-49
2022/10/06 04:44:47;;;;;;;11.13;4.47;;;16.40;96.20;;;19.12;55.19;98673.94;5022608;28;20049;-48
2022/10/06 04:47:15;;;;;;;5.63;3.47;;;16.40;96.60;;;19.12;55.34;98678.53;5039530;28;20052;-49
2022/10/06 04:49:43;;;;;;;11.05;3.85;;;16.40;96.60;;;19.19;55.10;98679.41;5022925;28;20061;-47
2022/10/06 04:52:11;;;;;;;3.88;3.08;;;16.40;97.20;;;19.17;55.22;98685.00;5024171;28;20038;-47
2022/10/06 04:54:40;;;;;;;4.65;3.42;;;16.40;97.50;;;18.99;55.94;98684.59;5023674;28;20050;-48
2022/10/06 04:57:09;;;;;;;8.20;4.22;;;16.40;98.30;;;18.97;55.85;98692.88;5039060;28;20353;-46
2022/10/06 05:02:30;;;;;;;5.60;3.87;;;16.30;99.20;;;18.93;56.08;98690.75;5039339;28;20049;-48
2022/10/06 05:04:58;;;;;;;6.85;3.97;;;16.30;99.90;;;18.92;56.19;98707.94;5038548;28;20064;-52
2022/10/06 05:07:27;;;;;;;5.50;3.75;;;16.30;99.90;;;18.95;56.13;98702.19;5022729;28;20041;-52
2022/10/06 05:09:57;;;;;;;7.30;3.55;;;16.30;99.90;;;18.99;56.06;98706.19;5021965;28;20050;-48
2022/10/06 05:12:25;;;;;;;4.80;3.45;;;16.30;99.90;;;19.00;55.87;98708.69;5023312;28;20057;-49
2022/10/06 05:14:53;;;;;;;5.47;3.85;;;16.40;99.90;;;18.94;56.31;98711.28;5023223;28;20309;-49
2022/10/06 05:17:21;;;;;;;5.72;3.58;;;16.40;99.90;;;18.96;56.22;98720.03;5022946;28;20050;-52
2022/10/06 05:19:51;;;;;;;7.05;3.60;;;16.40;99.90;;;19.04;56.00;98722.66;5022183;28;20053;-49
2022/10/06 05:22:19;;;;;;;6.38;4.50;;;16.40;99.90;;;18.99;56.16;98716.97;5022487;28;20054;-50
2022/10/06 05:24:52;;;;;;;4.40;3.15;;;16.40;99.90;;;19.17;55.61;98725.47;5023652;28;20244;-49
2022/10/06 05:27:20;;;;;;;6.95;3.78;;;16.40;99.90;;;18.92;56.44;98729.53;5021859;28;20053;-51
2022/10/06 05:29:48;;;;;;;7.32;3.80;;;16.30;99.90;;;19.01;56.05;98723.84;5023039;28;20042;-52
2022/10/06 05:32:16;;;;;;;7.78;5.22;;;16.30;99.90;;;19.07;55.99;98738.44;5023570;28;20042;-52
2022/10/06 05:34:43;;;;;;;10.88;4.40;;;16.40;99.90;;;19.10;55.83;98746.19;5022597;28;20046;-51
2022/10/06 05:37:11;;;;;;;6.80;3.97;;;16.30;99.90;;;19.20;55.65;98745.88;5054855;28;20053;-49
2022/10/06 05:39:39;;;;;;;6.80;3.30;;;16.40;99.90;;;19.25;55.41;98744.28;5038871;28;20268;-49
2022/10/06 05:42:07;;;;;;;5.63;3.40;;;16.40;99.90;;;19.23;55.34;98738.25;5055245;28;20072;-52
2022/10/06 05:44:34;;;;;;;7.45;3.53;;;16.40;99.90;;;19.23;55.37;98753.56;5055185;28;20076;-52
2022/10/06 05:47:07;;;;;;;7.45;3.40;;;16.40;99.90;;;19.23;55.35;98749.03;5021463;28;20344;-50
2022/10/06 05:49:35;;;;;;;5.70;3.80;;;16.40;99.90;;;19.10;55.73;98751.56;5037661;28;20049;-52
2022/10/06 05:52:04;;;;;;;6.30;3.20;;;16.30;99.90;;;18.87;56.42;98766.00;5022450;28;20272;-48
2022/10/06 05:54:35;;;;;;;4.75;3.35;;;16.20;99.90;;;18.82;56.53;98767.59;5022562;28;20348;-49
2022/10/06 05:57:03;;;;;;;6.93;3.38;;;16.20;99.90;;;18.92;56.33;98775.41;5023918;28;20057;-50
2022/10/06 05:59:33;;;;;;;8.02;3.33;;;16.20;99.90;;;19.07;55.83;98763.56;5021885;28;20053;-51
2022/10/06 06:02:02;;;;;;;5.63;3.78;;;16.20;99.90;;;19.06;55.82;98771.88;5021311;28;20064;-51
2022/10/06 06:04:34;;;;;;;6.22;3.80;;;16.30;99.90;;;18.89;56.47;98772.06;5022877;28;20045;-50
2022/10/06 06:07:02;;;;;;;7.75;4.20;;;16.20;99.90;;;18.98;56.16;98782.75;5022178;28;20056;-52
2022/10/06 06:09:30;;;;;;;7.35;4.10;;;16.20;99.90;;;19.00;56.06;98786.09;5021933;28;20251;-52
2022/10/06 06:12:00;;;;;;;6.57;3.45;;;16.20;99.90;;;19.03;55.90;98789.25;5054665;28;20056;-47
2022/10/06 06:17:48;;;;;;;5.57;3.70;;;16.20;99.90;;;19.10;55.48;98807.41;5037611;28;20058;-50
2022/10/06 06:20:16;;;;;;;6.55;3.17;;;16.20;99.90;;;19.02;55.73;98803.78;5038284;28;20054;-53
2022/10/06 06:22:44;;;;;;;6.30;3.53;;;16.20;99.90;;;18.91;56.09;98806.13;5054431;28;20072;-49
2022/10/06 06:25:12;;;;;;;5.55;3.28;;;16.20;99.90;;;18.90;55.88;98807.97;5022591;28;20054;-52
2022/10/06 06:27:42;;;;;;;6.35;3.40;;;16.20;99.90;;;18.79;56.35;98814.66;5020866;28;20049;-51
2022/10/06 06:30:11;;;;;;;5.53;3.58;;;16.10;99.90;;;18.74;56.42;98814.34;5021805;28;20461;-51
2022/10/06 06:32:39;;;;;;;5.57;3.38;;;16.10;99.90;;;18.93;55.92;98826.50;5021225;28;20045;-51
2022/10/06 06:35:08;;;;;;;5.72;3.42;;;16.20;99.90;;;18.99;55.80;98833.84;5037021;28;20056;-48
2022/10/06 06:37:36;;;;;;;7.85;4.85;;;16.20;99.90;;;18.91;56.09;98830.41;5021159;28;20050;-49
2022/10/06 06:40:06;;;;;;;4.93;3.05;;;16.20;99.90;;;18.89;56.13;98834.13;5038042;28;20056;-47
2022/10/06 06:42:37;;;;;;;4.97;3.40;;;16.10;99.90;;;18.78;56.34;98839.09;5021555;28;20057;-47
2022/10/06 06:45:25;;;;;;;4.32;3.25;;;16.10;99.90;;;18.70;56.46;98843.53;5041463;28;20058;-50
2022/10/06 06:48:01;;;;;;;6.07;3.35;;;16.00;99.90;;;18.70;56.71;98853.50;5021029;28;20056;-50
2022/10/06 06:50:30;;;;;;;8.23;3.60;;;16.00;99.90;;;18.60;56.80;98852.94;5034948;28;20056;-49
2022/10/06 06:53:01;;;;;;;8.20;3.60;;;15.90;99.90;;;18.62;56.94;98865.22;5054147;28;20049;-50
2022/10/06 06:55:30;;;;;;;4.88;3.72;;;16.00;99.90;;;18.47;57.04;98861.66;5054160;28;20050;-49
2022/10/06 06:57:59;;;;;;;2.90;2.60;;;15.90;99.90;;;18.29;57.38;98868.19;5020333;28;20225;-53
2022/10/06 07:00:27;;;;;;;5.38;3.05;;;15.80;99.90;;;18.56;56.71;98859.72;5053362;28;20057;-49
2022/10/06 07:03:02;;;;;;;3.97;2.60;;;15.90;99.90;;;18.12;57.34;98871.19;5020993;28;20054;-49
2022/10/06 07:05:31;;;;;;;4.93;2.58;;;15.80;99.90;;;18.56;56.28;98879.44;5021883;28;20065;-50
2022/10/06 07:07:59;;;;;;;5.57;2.83;;;15.80;99.90;;;18.65;56.01;98878.34;5023009;28;20332;-50
2022/10/06 07:10:27;;;;;;;7.45;3.03;;;15.80;99.90;;;18.74;55.97;98886.34;5041878;28;20348;-49
2022/10/06 07:12:55;;;;;;;6.30;2.85;;;15.90;99.90;;;18.78;55.76;98893.06;5026064;28;20193;-48
2022/10/06 07:26:32;;;;;;;4.47;2.35;;;16.00;98.00;;;18.88;54.24;98905.31;5026823;28;20056;-48
2022/10/06 07:28:59;;;;;;;5.70;2.60;;;15.90;98.80;;;18.73;54.56;98919.72;5041454;28;20230;-48
2022/10/06 07:31:32;;;;;;;4.40;2.42;;;15.90;98.50;;;18.72;54.58;98920.75;5040943;28;20056;-48
2022/10/06 07:34:02;;;;;;;6.95;2.92;;;15.80;98.40;;;18.85;54.18;98921.00;5025701;28;20056;-50
2022/10/06 07:36:31;;;;;;;5.13;1.77;;;15.90;97.70;;;18.90;54.12;98910.50;5025254;28;20041;-53
2022/10/06 07:39:00;;;;;;;6.30;2.40;;;16.00;98.00;;;18.94;53.96;98910.97;5024211;28;20244;-52
2022/10/06 07:41:30;;;;;;;3.25;2.58;;;16.00;96.20;;;18.67;54.42;98915.94;5024535;28;20053;-53
2022/10/06 07:44:04;;;;;;;3.80;2.30;;;15.80;97.30;;;18.80;53.87;98921.53;5024468;28;20229;-52
2022/10/06 07:46:35;;;;;;;2.70;2.10;;;15.90;96.90;;;18.86;53.58;98918.13;5024502;28;20200;-48
2022/10/06 07:49:10;;;;;;;4.63;2.90;;;16.00;95.90;;;18.97;53.63;98927.63;5024053;28;20054;-51
2022/10/06 07:51:38;;;;;;;5.90;2.30;;;16.10;95.60;;;18.85;53.28;98934.50;5057807;28;20052;-50
2022/10/06 07:54:07;;;;;;;4.55;2.10;;;16.10;94.30;;;18.91;53.26;98941.03;5024720;28;20244;-49
2022/10/06 07:56:58;;;;;;;5.18;1.70;;;16.10;94.50;;;18.86;53.03;98946.94;5033022;28;20061;-49
2022/10/06 07:59:26;;;;;;;2.75;1.80;;;16.00;93.70;;;19.01;52.86;98944.28;5025300;28;20217;-50
2022/10/06 08:01:53;;;;;;;4.63;2.00;;;16.10;93.50;;;18.85;52.66;98940.72;5024190;28;20337;-53
2022/10/06 08:04:21;;;;;;;2.90;2.10;;;16.00;92.20;;;18.92;52.55;98951.66;5025577;28;20045;-52
2022/10/06 08:06:49;;;;;;;4.70;1.80;;;16.10;92.10;;;18.84;52.19;98947.16;5024553;28;20056;-48
2022/10/06 08:09:17;;;;;;;4.30;2.03;;;16.00;90.50;;;18.94;52.27;98944.19;5025703;28;20071;-48
2022/10/06 08:11:46;;;;;;;4.40;2.25;;;16.10;90.40;;;18.95;51.88;98951.25;5024908;28;20048;-48
2022/10/06 08:14:14;;;;;;;4.85;1.98;;;16.10;90.20;;;18.86;52.22;98955.91;5025247;28;20068;-48
2022/10/06 08:16:41;;;;;;;4.10;2.33;;;16.00;88.90;;;18.78;52.27;98955.94;5024493;28;20052;-50
2022/10/06 08:19:10;;;;;;;6.28;1.73;;;16.00;90.00;;;18.69;52.25;98954.34;5023724;28;20364;-50
2022/10/06 08:21:38;;;;;;;4.68;2.30;;;16.00;89.60;;;18.92;51.90;98957.03;5024773;28;20045;-50
2022/10/06 08:24:06;;;;;;;3.40;1.73;;;16.10;89.30;;;18.72;52.24;98963.91;5007400;28;20053;-48
2022/10/06 08:26:34;;;;;;;3.92;1.83;;;16.00;89.00;;;18.48;52.52;98965.78;5024259;28;20054;-49
2022/10/06 08:29:02;;;;;;;3.25;1.70;;;15.90;89.00;;;18.64;52.18;98967.53;5024445;28;20038;-50
2022/10/06 08:31:31;;;;;;;3.80;2.22;;;16.00;88.50;;;18.52;52.73;98969.81;5024231;28;20045;-51
2022/10/06 08:34:00;;;;;;;4.65;2.55;;;15.90;89.40;;;18.57;52.32;98975.50;5024631;28;20054;-50
2022/10/06 08:36:28;;;;;;;3.95;1.60;;;16.00;88.50;;;18.78;52.26;98984.78;5024165;28;20046;-48
2022/10/06 08:39:00;;;;;;;4.25;2.30;;;16.10;88.70;;;18.86;52.15;98985.59;5023483;28;20050;-49
2022/10/06 08:41:47;;;;;;;5.00;1.85;;;16.10;88.60;;;18.97;52.01;98987.00;5024835;28;20050;-48
2022/10/06 08:45:01;;;;;;;8.40;2.53;;;16.20;87.50;;;18.79;52.03;98989.16;5023736;28;20221;-47
2022/10/06 08:47:34;;;;;;;3.17;1.38;;;16.10;87.70;;;18.90;51.61;98983.34;5061551;28;20045;-50
2022/10/06 08:50:10;;;;;;;3.50;1.83;;;16.20;86.00;;;19.16;51.40;98991.03;5024915;28;20046;-51
2022/10/06 08:52:57;;;;;;;3.92;1.95;;;16.30;87.60;;;19.21;51.04;98990.47;5024768;28;20053;-52
2022/10/06 08:56:07;;;;;;;2.60;1.55;;;16.40;85.00;;;18.94;50.95;98987.38;5023230;28;20239;-50
2022/10/06 08:59:04;;;;;;;4.38;1.95;;;16.40;84.80;;;19.24;50.97;98993.66;5022687;28;20045;-49
2022/10/06 09:01:50;;;;;;;4.50;2.17;;;16.40;85.70;;;19.34;50.31;99000.66;5023330;28;20056;-49
2022/10/06 09:04:29;;;;;;;5.65;2.28;;;16.50;82.60;;;19.20;50.18;99000.44;5023009;28;20049;-51
2022/10/06 09:07:20;;;;;;;6.55;1.83;;;16.50;82.50;;;19.02;49.90;99003.50;5022364;28;20052;-51
2022/10/06 09:10:06;;;;;;;2.17;1.70;;;16.40;80.60;;;19.00;50.33;98999.28;5023825;28;20050;-48
2022/10/06 09:12:59;;;;;;;6.15;2.28;;;16.30;82.40;;;19.24;50.05;99006.31;5023872;28;20052;-51
2022/10/06 09:15:37;;;;;;;7.60;2.10;;;16.50;83.50;;;19.17;50.08;99005.38;5022992;28;20046;-50
2022/10/06 09:18:12;;;;;;;3.08;1.30;;;16.50;81.50;;;19.14;50.10;99003.06;5023383;28;20240;-52
2022/10/06 09:21:10;;;;;;;3.58;1.77;;;16.40;82.60;;;19.32;49.83;99000.00;5022532;28;20056;-50
2022/10/06 09:23:47;;;;;;;4.40;1.67;;;16.50;81.80;;;19.22;49.77;99008.38;5023652;28;20050;-50
2022/10/06 09:26:42;;;;;;;5.45;2.42;;;16.40;81.70;;;19.31;49.68;99004.56;5023597;28;20051;-52
2022/10/06 09:29:10;;;;;;;3.72;1.83;;;16.50;81.20;;;19.34;49.71;99003.34;5022405;28;20048;-51
2022/10/06 09:31:42;;;;;;;4.90;1.80;;;16.60;81.50;;;19.45;49.53;99005.59;5022941;28;20049;-51
2022/10/06 09:34:34;;;;;;;3.67;1.67;;;16.70;81.10;;;19.26;48.98;99015.91;5024125;28;20244;-52
2022/10/06 09:37:07;;;;;;;4.75;1.77;;;16.60;77.90;;;19.01;49.79;99018.00;5022686;28;20059;-49
2022/10/06 09:39:48;;;;;;;2.78;1.20;;;16.60;79.00;;;19.27;48.74;99017.59;5023670;28;20374;-52
2022/10/06 09:42:21;;;;;;;3.40;1.48;;;16.60;78.20;;;19.46;48.77;99020.78;5022170;28;20045;-51
2022/10/06 09:44:50;;;;;;;;;;;16.70;78.70;;;19.53;48.67;99021.72;5023767;28;20050;-49
2022/10/06 09:47:33;;;;;;;5.60;2.00;;;16.90;78.10;;;19.74;48.58;99021.00;5022825;28;19921;-47
2022/10/06 09:50:11;;;;;;;2.50;1.52;;;17.00;77.20;;;19.73;48.00;99018.50;5020710;28;20053;-48
2022/10/06 09:53:04;;;;;;;4.95;1.70;;;17.00;77.10;;;19.74;48.47;99023.72;5023212;28;20248;-51
2022/10/06 09:55:38;;;;;;;3.75;1.50;;;17.00;77.40;;;19.79;47.89;99032.09;5023316;28;20041;-48
2022/10/06 09:58:24;;;;;;;5.43;2.83;;;17.10;76.90;;;19.68;47.73;99035.25;5022696;28;20251;-51
2022/10/06 10:00:55;;;;;;;4.25;1.60;;;16.90;75.00;;;19.79;47.49;99037.50;5021892;28;20374;-52
2022/10/06 10:03:25;;;;;;;5.18;1.73;;;16.90;76.20;;;19.65;47.94;99039.13;5022855;28;20370;-47
2022/10/06 10:05:54;;;;;;;3.15;1.52;;;16.90;75.70;;;19.67;47.76;99047.88;5021808;28;20049;-52
2022/10/06 10:08:29;;;;;;;5.00;1.40;;;16.90;76.10;;;19.77;47.63;99044.94;5022292;28;20052;-52
2022/10/06 10:14:18;;;;;;;5.35;1.95;;;17.10;76.10;;;20.12;47.42;99036.25;5022673;28;20050;-54
2022/10/06 10:16:47;;;;;;;3.53;1.42;;;17.30;76.30;;;20.26;47.38;99041.66;5021271;28;20275;-49
2022/10/06 10:19:32;;;;;;;3.17;1.83;;;17.40;74.30;;;20.01;46.74;99040.28;5022626;28;20056;-51
2022/10/06 10:22:01;;;;;;;5.82;1.80;;;17.30;72.80;;;20.18;46.87;99030.09;5021769;28;20069;-49
2022/10/06 10:25:21;;;;;;;3.60;2.17;;;17.30;74.20;;;20.11;46.24;99034.59;5021471;28;20103;-49
2022/10/06 10:28:14;;;;;;;3.55;1.67;;;17.30;71.10;;;20.37;46.54;99043.00;5022128;28;20248;-50
2022/10/06 10:31:10;;;;;;;3.10;1.73;;;17.40;72.50;;;20.49;46.61;99040.66;5022592;28;20046;-51
2022/10/06 10:34:27;;;;;;;7.57;1.90;;;17.60;71.40;;;20.65;46.43;99045.84;5022546;28;20042;-52
2022/10/06 10:37:03;;;;;;;7.03;2.83;;;17.80;70.20;;;20.80;45.92;99045.81;5021865;28;20046;-49
2022/10/06 10:39:40;;;;;;;5.80;2.10;;;17.90;69.50;;;20.76;45.31;99041.81;5022564;28;20045;-48
2022/10/06 10:42:27;;;;;;;3.20;1.55;;;17.90;69.30;;;20.65;45.35;99040.44;5020761;28;20060;-47
2022/10/06 10:45:17;;;;;;;3.97;2.05;;;17.60;68.50;;;20.44;45.23;99035.81;5021313;28;20062;-49
2022/10/06 10:47:48;;;;;;;4.30;1.92;;;17.40;69.40;;;20.53;45.87;99030.28;5020985;28;20056;-50
2022/10/06 10:50:32;;;;;;;2.70;1.67;;;17.50;70.70;;;20.54;45.40;99035.50;5022294;28;20045;-48
2022/10/06 10:53:22;;;;;;;7.35;2.53;;;17.50;69.20;;;20.57;45.33;99037.84;5022324;28;20345;-49
2022/10/06 10:55:52;;;;;;;4.70;1.58;;;17.60;68.60;;;20.53;45.04;99035.69;5021812;28;20049;-50
2022/10/06 10:58:40;;;;;;;4.80;1.60;;;17.50;67.50;;;20.55;44.71;99033.63;5021694;28;20049;-50
2022/10/06 11:01:40;;;;;;;2.40;1.60;;;17.60;65.30;;;20.35;44.51;99023.44;5022322;28;20049;-49
2022/10/06 11:04:12;;;;;;;5.70;1.60;;;17.60;65.70;;;20.38;44.79;99023.06;5021205;28;20056;-49
2022/10/06 11:07:25;;;;;;;2.95;1.88;;;17.50;66.00;;;20.39;44.63;99034.69;5020759;28;20056;-50